sensor_id;sensor_type;location;lat;lon;timestamp;P1;durP1;ratioP1;P2;durP2;ratioP2
9759;SDS011;4919;48.792;9.202;2023-01-28T00:02:20;3.03;;;2.20;;
9759;SDS011;4919;48.792;9.202;2023-01-28T00:05:05;6.47;;;2.97;;
9759;SDS011;4919;48.792;9.202;2023-01-28T00:07:50;5.10;;;2.73;;
9759;SDS011;4919;48.792;9.202;2023-01-28T00:10:36;18.37;;;3.20;;
9759;SDS011;4919;48.792;9.202;2023-01-28T00:13:21;5.90;;;2.63;;
9759;SDS011;4919;48.792;9.202;2023-01-28T00:16:06;6.30;;;2.60;;
9759;SDS011;4919;48.792;9.202;2023-01-28T00:18:52;6.87;;;2.97;;
9759;SDS011;4919;48.792;9.202;2023-01-28T00:21:37;4.50;;;2.80;;
9759;SDS011;4919;48.792;9.202;2023-01-28T00:24:22;6.17;;;2.57;;
9759;SDS011;4919;48.792;9.202;2023-01-28T00:27:07;6.83;;;2.80;;
9759;SDS011;4919;48.792;9.202;2023-01-28T00:29:52;5.97;;;2.67;;
9759;SDS011;4919;48.792;9.202;2023-01-28T00:32:37;5.20;;;2.83;;
9759;SDS011;4919;48.792;9.202;2023-01-28T00:35:21;4.93;;;2.87;;
9759;SDS011;4919;48.792;9.202;2023-01-28T00:38:06;4.40;;;2.77;;
9759;SDS011;4919;48.792;9.202;2023-01-28T00:40:51;7.00;;;3.17;;
9759;SDS011;4919;48.792;9.202;2023-01-28T00:43:36;7.83;;;2.90;;
9759;SDS011;4919;48.792;9.202;2023-01-28T00:46:21;5.23;;;2.83;;
9759;SDS011;4919;48.792;9.202;2023-01-28T00:49:07;7.30;;;2.97;;
9759;SDS011;4919;48.792;9.202;2023-01-28T00:51:51;6.93;;;3.37;;
9759;SDS011;4919;48.792;9.202;2023-01-28T00:54:36;6.33;;;3.00;;
9759;SDS011;4919;48.792;9.202;2023-01-28T00:57:21;5.67;;;2.83;;
9759;SDS011;4919;48.792;9.202;2023-01-28T01:00:06;5.47;;;2.90;;
9759;SDS011;4919;48.792;9.202;2023-01-28T01:02:51;7.30;;;3.00;;
9759;SDS011;4919;48.792;9.202;2023-01-28T01:05:36;6.67;;;3.23;;
9759;SDS011;4919;48.792;9.202;2023-01-28T01:08:21;5.67;;;2.77;;
9759;SDS011;4919;48.792;9.202;2023-01-28T01:11:06;8.13;;;3.07;;
9759;SDS011;4919;48.792;9.202;2023-01-28T01:13:54;7.10;;;3.37;;
9759;SDS011;4919;48.792;9.202;2023-01-28T01:16:41;6.33;;;3.00;;
9759;SDS011;4919;48.792;9.202;2023-01-28T01:19:26;8.23;;;3.47;;
9759;SDS011;4919;48.792;9.202;2023-01-28T01:22:10;6.73;;;3.13;;
9759;SDS011;4919;48.792;9.202;2023-01-28T01:24:55;7.00;;;3.83;;
9759;SDS011;4919;48.792;9.202;2023-01-28T01:27:40;6.33;;;3.20;;
9759;SDS011;4919;48.792;9.202;2023-01-28T01:30:26;8.07;;;4.03;;
9759;SDS011;4919;48.792;9.202;2023-01-28T01:33:11;4.90;;;3.20;;
9759;SDS011;4919;48.792;9.202;2023-01-28T01:35:56;9.40;;;3.40;;
9759;SDS011;4919;48.792;9.202;2023-01-28T01:38:41;5.30;;;3.50;;
9759;SDS011;4919;48.792;9.202;2023-01-28T01:41:28;6.00;;;3.43;;
9759;SDS011;4919;48.792;9.202;2023-01-28T01:47:43;8.60;;;3.93;;
9759;SDS011;4919;48.792;9.202;2023-01-28T01:50:35;6.13;;;3.70;;
9759;SDS011;4919;48.792;9.202;2023-01-28T01:53:24;8.43;;;3.93;;
9759;SDS011;4919;48.792;9.202;2023-01-28T01:56:12;6.20;;;3.83;;
9759;SDS011;4919;48.792;9.202;2023-01-28T01:59:00;8.67;;;4.07;;
9759;SDS011;4919;48.792;9.202;2023-01-28T02:01:45;8.67;;;3.80;;
9759;SDS011;4919;48.792;9.202;2023-01-28T02:04:32;5.73;;;4.03;;
9759;SDS011;4919;48.792;9.202;2023-01-28T02:07:25;8.20;;;4.67;;
9759;SDS011;4919;48.792;9.202;2023-01-28T02:10:11;9.50;;;4.77;;
9759;SDS011;4919;48.792;9.202;2023-01-28T02:12:57;9.67;;;5.70;;
9759;SDS011;4919;48.792;9.202;2023-01-28T02:15:42;17.90;;;6.83;;
9759;SDS011;4919;48.792;9.202;2023-01-28T02:18:29;16.43;;;8.60;;
9759;SDS011;4919;48.792;9.202;2023-01-28T02:32:55;19.50;;;9.33;;
9759;SDS011;4919;48.792;9.202;2023-01-28T02:38:38;15.57;;;8.43;;
9759;SDS011;4919;48.792;9.202;2023-01-28T02:41:28;14.47;;;7.87;;
9759;SDS011;4919;48.792;9.202;2023-01-28T02:44:18;16.43;;;7.37;;
9759;SDS011;4919;48.792;9.202;2023-01-28T02:47:04;17.10;;;7.37;;
9759;SDS011;4919;48.792;9.202;2023-01-28T02:49:57;13.80;;;7.40;;
9759;SDS011;4919;48.792;9.202;2023-01-28T02:55:42;13.33;;;6.80;;
9759;SDS011;4919;48.792;9.202;2023-01-28T03:05:11;12.93;;;6.87;;
9759;SDS011;4919;48.792;9.202;2023-01-28T03:07:59;13.00;;;7.10;;
9759;SDS011;4919;48.792;9.202;2023-01-28T03:10:44;12.03;;;6.30;;
9759;SDS011;4919;48.792;9.202;2023-01-28T03:13:29;13.53;;;6.17;;
9759;SDS011;4919;48.792;9.202;2023-01-28T03:16:14;17.07;;;6.80;;
9759;SDS011;4919;48.792;9.202;2023-01-28T03:18:59;11.60;;;6.17;;
9759;SDS011;4919;48.792;9.202;2023-01-28T03:21:45;13.57;;;5.83;;
9759;SDS011;4919;48.792;9.202;2023-01-28T03:24:32;12.43;;;5.73;;
9759;SDS011;4919;48.792;9.202;2023-01-28T03:27:24;10.60;;;5.83;;
9759;SDS011;4919;48.792;9.202;2023-01-28T03:30:27;10.53;;;5.23;;
9759;SDS011;4919;48.792;9.202;2023-01-28T03:33:17;11.17;;;5.07;;
9759;SDS011;4919;48.792;9.202;2023-01-28T03:36:03;9.97;;;5.30;;
9759;SDS011;4919;48.792;9.202;2023-01-28T03:38:50;9.60;;;4.67;;
9759;SDS011;4919;48.792;9.202;2023-01-28T03:41:35;8.03;;;4.73;;
9759;SDS011;4919;48.792;9.202;2023-01-28T03:44:20;11.23;;;5.10;;
9759;SDS011;4919;48.792;9.202;2023-01-28T03:47:04;9.43;;;4.67;;
9759;SDS011;4919;48.792;9.202;2023-01-28T03:49:50;11.23;;;5.13;;
9759;SDS011;4919;48.792;9.202;2023-01-28T03:52:37;16.50;;;8.93;;
9759;SDS011;4919;48.792;9.202;2023-01-28T03:55:22;14.93;;;7.87;;
9759;SDS011;4919;48.792;9.202;2023-01-28T03:58:07;12.60;;;5.97;;
9759;SDS011;4919;48.792;9.202;2023-01-28T04:00:53;8.70;;;4.10;;
9759;SDS011;4919;48.792;9.202;2023-01-28T04:03:37;8.63;;;4.60;;
9759;SDS011;4919;48.792;9.202;2023-01-28T04:06:22;21.33;;;14.67;;
9759;SDS011;4919;48.792;9.202;2023-01-28T04:09:07;13.00;;;7.40;;
9759;SDS011;4919;48.792;9.202;2023-01-28T04:11:52;9.50;;;5.27;;
9759;SDS011;4919;48.792;9.202;2023-01-28T04:14:37;8.40;;;4.00;;
9759;SDS011;4919;48.792;9.202;2023-01-28T04:17:22;10.23;;;6.13;;
9759;SDS011;4919;48.792;9.202;2023-01-28T04:20:07;10.10;;;6.40;;
9759;SDS011;4919;48.792;9.202;2023-01-28T04:22:53;16.07;;;8.70;;
9759;SDS011;4919;48.792;9.202;2023-01-28T04:25:38;12.07;;;8.07;;
9759;SDS011;4919;48.792;9.202;2023-01-28T04:28:23;59.43;;;24.97;;
9759;SDS011;4919;48.792;9.202;2023-01-28T04:31:07;66.23;;;22.23;;
9759;SDS011;4919;48.792;9.202;2023-01-28T04:33:52;187.40;;;53.30;;
9759;SDS011;4919;48.792;9.202;2023-01-28T04:36:37;107.17;;;34.97;;
9759;SDS011;4919;48.792;9.202;2023-01-28T04:39:22;26.27;;;12.03;;
9759;SDS011;4919;48.792;9.202;2023-01-28T04:42:07;18.00;;;8.60;;
9759;SDS011;4919;48.792;9.202;2023-01-28T04:44:52;8.63;;;4.47;;
9759;SDS011;4919;48.792;9.202;2023-01-28T04:47:37;8.10;;;5.47;;
9759;SDS011;4919;48.792;9.202;2023-01-28T04:50:22;5.13;;;3.90;;
9759;SDS011;4919;48.792;9.202;2023-01-28T04:53:06;5.10;;;3.57;;
9759;SDS011;4919;48.792;9.202;2023-01-28T04:55:51;6.37;;;3.73;;
9759;SDS011;4919;48.792;9.202;2023-01-28T04:58:36;7.17;;;4.27;;
9759;SDS011;4919;48.792;9.202;2023-01-28T05:01:21;4.70;;;3.23;;
9759;SDS011;4919;48.792;9.202;2023-01-28T05:04:06;5.07;;;2.73;;
9759;SDS011;4919;48.792;9.202;2023-01-28T05:06:51;4.50;;;2.70;;
9759;SDS011;4919;48.792;9.202;2023-01-28T05:09:35;6.23;;;2.47;;
9759;SDS011;4919;48.792;9.202;2023-01-28T05:12:20;11.77;;;7.90;;
9759;SDS011;4919;48.792;9.202;2023-01-28T05:15:05;65.33;;;33.73;;
9759;SDS011;4919;48.792;9.202;2023-01-28T05:17:52;68.60;;;33.17;;
9759;SDS011;4919;48.792;9.202;2023-01-28T05:20:38;56.00;;;25.07;;
9759;SDS011;4919;48.792;9.202;2023-01-28T05:23:23;30.43;;;14.00;;
9759;SDS011;4919;48.792;9.202;2023-01-28T05:26:07;96.07;;;37.50;;
9759;SDS011;4919;48.792;9.202;2023-01-28T05:28:53;36.43;;;17.87;;
9759;SDS011;4919;48.792;9.202;2023-01-28T05:31:37;16.03;;;8.03;;
9759;SDS011;4919;48.792;9.202;2023-01-28T05:34:22;12.53;;;7.37;;
9759;SDS011;4919;48.792;9.202;2023-01-28T05:37:07;12.03;;;6.87;;
9759;SDS011;4919;48.792;9.202;2023-01-28T05:39:52;6.43;;;4.10;;
9759;SDS011;4919;48.792;9.202;2023-01-28T05:42:37;7.90;;;4.70;;
9759;SDS011;4919;48.792;9.202;2023-01-28T05:45:21;7.37;;;4.40;;
9759;SDS011;4919;48.792;9.202;2023-01-28T05:48:06;5.10;;;3.30;;
9759;SDS011;4919;48.792;9.202;2023-01-28T05:50:52;27.43;;;11.43;;
9759;SDS011;4919;48.792;9.202;2023-01-28T05:53:37;14.20;;;6.70;;
9759;SDS011;4919;48.792;9.202;2023-01-28T05:56:21;32.40;;;15.13;;
9759;SDS011;4919;48.792;9.202;2023-01-28T05:59:06;40.87;;;16.80;;
9759;SDS011;4919;48.792;9.202;2023-01-28T06:01:53;24.50;;;11.47;;
9759;SDS011;4919;48.792;9.202;2023-01-28T06:04:38;28.17;;;11.93;;
9759;SDS011;4919;48.792;9.202;2023-01-28T06:07:23;42.13;;;16.97;;
9759;SDS011;4919;48.792;9.202;2023-01-28T06:10:08;42.53;;;15.70;;
9759;SDS011;4919;48.792;9.202;2023-01-28T06:12:53;21.03;;;9.87;;
9759;SDS011;4919;48.792;9.202;2023-01-28T06:15:38;19.43;;;8.73;;
9759;SDS011;4919;48.792;9.202;2023-01-28T06:18:23;12.80;;;6.40;;
9759;SDS011;4919;48.792;9.202;2023-01-28T06:21:08;14.23;;;6.73;;
9759;SDS011;4919;48.792;9.202;2023-01-28T06:23:53;11.73;;;5.57;;
9759;SDS011;4919;48.792;9.202;2023-01-28T06:26:38;11.07;;;5.70;;
9759;SDS011;4919;48.792;9.202;2023-01-28T06:29:22;13.37;;;4.70;;
9759;SDS011;4919;48.792;9.202;2023-01-28T06:32:07;7.70;;;4.57;;
9759;SDS011;4919;48.792;9.202;2023-01-28T06:34:52;7.07;;;4.27;;
9759;SDS011;4919;48.792;9.202;2023-01-28T06:37:37;5.97;;;3.77;;
9759;SDS011;4919;48.792;9.202;2023-01-28T06:40:21;7.90;;;4.27;;
9759;SDS011;4919;48.792;9.202;2023-01-28T06:43:06;7.10;;;4.30;;
9759;SDS011;4919;48.792;9.202;2023-01-28T06:45:52;9.73;;;4.60;;
9759;SDS011;4919;48.792;9.202;2023-01-28T06:48:37;8.93;;;4.53;;
9759;SDS011;4919;48.792;9.202;2023-01-28T06:51:22;8.30;;;3.90;;
9759;SDS011;4919;48.792;9.202;2023-01-28T06:54:07;8.83;;;4.30;;
9759;SDS011;4919;48.792;9.202;2023-01-28T06:56:51;6.97;;;4.17;;
9759;SDS011;4919;48.792;9.202;2023-01-28T06:59:36;8.67;;;4.00;;
9759;SDS011;4919;48.792;9.202;2023-01-28T07:02:21;7.00;;;4.20;;
9759;SDS011;4919;48.792;9.202;2023-01-28T07:05:06;6.63;;;3.90;;
9759;SDS011;4919;48.792;9.202;2023-01-28T07:07:51;6.00;;;3.50;;
9759;SDS011;4919;48.792;9.202;2023-01-28T07:10:36;7.53;;;4.20;;
9759;SDS011;4919;48.792;9.202;2023-01-28T07:13:21;6.50;;;3.73;;
9759;SDS011;4919;48.792;9.202;2023-01-28T07:16:06;4.93;;;3.60;;
9759;SDS011;4919;48.792;9.202;2023-01-28T07:18:51;6.30;;;3.63;;
9759;SDS011;4919;48.792;9.202;2023-01-28T07:21:36;6.97;;;3.83;;
9759;SDS011;4919;48.792;9.202;2023-01-28T07:24:21;5.90;;;3.47;;
9759;SDS011;4919;48.792;9.202;2023-01-28T07:27:05;6.10;;;3.60;;
9759;SDS011;4919;48.792;9.202;2023-01-28T07:29:50;6.03;;;3.40;;
9759;SDS011;4919;48.792;9.202;2023-01-28T07:32:35;5.43;;;3.53;;
9759;SDS011;4919;48.792;9.202;2023-01-28T07:35:20;5.37;;;3.30;;
9759;SDS011;4919;48.792;9.202;2023-01-28T07:38:05;7.77;;;3.73;;
9759;SDS011;4919;48.792;9.202;2023-01-28T07:40:49;4.90;;;3.27;;
9759;SDS011;4919;48.792;9.202;2023-01-28T07:43:34;7.73;;;3.43;;
9759;SDS011;4919;48.792;9.202;2023-01-28T07:46:19;8.90;;;4.17;;
9759;SDS011;4919;48.792;9.202;2023-01-28T07:49:04;5.97;;;4.23;;
9759;SDS011;4919;48.792;9.202;2023-01-28T07:51:50;7.27;;;3.97;;
9759;SDS011;4919;48.792;9.202;2023-01-28T07:54:34;6.57;;;4.20;;
9759;SDS011;4919;48.792;9.202;2023-01-28T07:57:19;7.67;;;4.33;;
9759;SDS011;4919;48.792;9.202;2023-01-28T08:00:04;12.50;;;7.03;;
9759;SDS011;4919;48.792;9.202;2023-01-28T08:02:53;6.80;;;4.10;;
9759;SDS011;4919;48.792;9.202;2023-01-28T08:05:46;10.87;;;5.20;;
9759;SDS011;4919;48.792;9.202;2023-01-28T08:08:32;7.70;;;4.13;;
9759;SDS011;4919;48.792;9.202;2023-01-28T08:11:17;7.87;;;4.70;;
9759;SDS011;4919;48.792;9.202;2023-01-28T08:14:02;8.13;;;4.90;;
9759;SDS011;4919;48.792;9.202;2023-01-28T08:16:47;8.77;;;4.80;;
9759;SDS011;4919;48.792;9.202;2023-01-28T08:19:32;7.27;;;4.70;;
9759;SDS011;4919;48.792;9.202;2023-01-28T08:22:17;8.73;;;5.07;;
9759;SDS011;4919;48.792;9.202;2023-01-28T08:25:02;6.70;;;4.60;;
9759;SDS011;4919;48.792;9.202;2023-01-28T08:27:47;7.83;;;5.20;;
9759;SDS011;4919;48.792;9.202;2023-01-28T08:30:32;9.87;;;5.30;;
9759;SDS011;4919;48.792;9.202;2023-01-28T08:33:19;10.23;;;4.90;;
9759;SDS011;4919;48.792;9.202;2023-01-28T08:36:04;9.80;;;5.10;;
9759;SDS011;4919;48.792;9.202;2023-01-28T08:38:53;8.63;;;4.90;;
9759;SDS011;4919;48.792;9.202;2023-01-28T08:41:38;20.13;;;10.80;;
9759;SDS011;4919;48.792;9.202;2023-01-28T08:44:23;18.10;;;11.00;;
9759;SDS011;4919;48.792;9.202;2023-01-28T08:47:08;23.13;;;12.13;;
9759;SDS011;4919;48.792;9.202;2023-01-28T08:49:52;21.07;;;12.57;;
9759;SDS011;4919;48.792;9.202;2023-01-28T08:52:37;18.03;;;11.00;;
9759;SDS011;4919;48.792;9.202;2023-01-28T08:55:23;21.43;;;12.30;;
9759;SDS011;4919;48.792;9.202;2023-01-28T08:58:12;26.03;;;13.90;;
9759;SDS011;4919;48.792;9.202;2023-01-28T09:01:02;36.47;;;16.30;;
9759;SDS011;4919;48.792;9.202;2023-01-28T09:03:48;55.40;;;23.33;;
9759;SDS011;4919;48.792;9.202;2023-01-28T09:06:33;25.20;;;14.20;;
9759;SDS011;4919;48.792;9.202;2023-01-28T09:09:18;47.17;;;21.40;;
9759;SDS011;4919;48.792;9.202;2023-01-28T09:12:03;92.83;;;42.40;;
9759;SDS011;4919;48.792;9.202;2023-01-28T09:14:48;19.27;;;12.53;;
9759;SDS011;4919;48.792;9.202;2023-01-28T09:17:33;22.37;;;13.83;;
9759;SDS011;4919;48.792;9.202;2023-01-28T09:20:17;53.53;;;33.17;;
9759;SDS011;4919;48.792;9.202;2023-01-28T09:23:03;15.17;;;9.73;;
9759;SDS011;4919;48.792;9.202;2023-01-28T09:25:48;17.83;;;12.20;;
9759;SDS011;4919;48.792;9.202;2023-01-28T09:28:32;16.80;;;11.37;;
9759;SDS011;4919;48.792;9.202;2023-01-28T09:31:18;23.20;;;15.33;;
9759;SDS011;4919;48.792;9.202;2023-01-28T09:34:02;20.77;;;14.63;;
9759;SDS011;4919;48.792;9.202;2023-01-28T09:36:47;17.90;;;12.60;;
9759;SDS011;4919;48.792;9.202;2023-01-28T09:39:32;19.37;;;11.80;;
9759;SDS011;4919;48.792;9.202;2023-01-28T09:45:41;29.83;;;18.33;;
9759;SDS011;4919;48.792;9.202;2023-01-28T09:48:34;25.40;;;16.07;;
9759;SDS011;4919;48.792;9.202;2023-01-28T09:57:18;17.20;;;12.17;;
9759;SDS011;4919;48.792;9.202;2023-01-28T10:00:10;15.63;;;9.63;;
9759;SDS011;4919;48.792;9.202;2023-01-28T10:18:02;17.43;;;9.40;;
9759;SDS011;4919;48.792;9.202;2023-01-28T10:20:53;58.50;;;26.50;;
9759;SDS011;4919;48.792;9.202;2023-01-28T10:23:50;47.07;;;22.27;;
9759;SDS011;4919;48.792;9.202;2023-01-28T10:26:40;14.47;;;8.63;;
9759;SDS011;4919;48.792;9.202;2023-01-28T10:29:30;16.50;;;9.87;;
9759;SDS011;4919;48.792;9.202;2023-01-28T10:32:28;29.63;;;15.33;;
9759;SDS011;4919;48.792;9.202;2023-01-28T10:35:19;31.57;;;16.77;;
9759;SDS011;4919;48.792;9.202;2023-01-28T10:38:05;159.47;;;52.30;;
9759;SDS011;4919;48.792;9.202;2023-01-28T10:40:53;27.57;;;13.23;;
9759;SDS011;4919;48.792;9.202;2023-01-28T10:43:44;70.67;;;26.73;;
9759;SDS011;4919;48.792;9.202;2023-01-28T10:46:33;54.73;;;20.70;;
9759;SDS011;4919;48.792;9.202;2023-01-28T10:49:21;28.83;;;14.23;;
9759;SDS011;4919;48.792;9.202;2023-01-28T10:52:14;4.07;;;2.30;;
9759;SDS011;4919;48.792;9.202;2023-01-28T10:55:04;7.77;;;2.43;;
9759;SDS011;4919;48.792;9.202;2023-01-28T10:57:49;3.93;;;2.33;;
9759;SDS011;4919;48.792;9.202;2023-01-28T11:00:35;53.30;;;13.90;;
9759;SDS011;4919;48.792;9.202;2023-01-28T11:03:20;4.37;;;1.90;;
9759;SDS011;4919;48.792;9.202;2023-01-28T11:06:16;3.20;;;1.73;;
9759;SDS011;4919;48.792;9.202;2023-01-28T11:09:24;2.60;;;2.00;;
9759;SDS011;4919;48.792;9.202;2023-01-28T11:12:22;3.90;;;2.10;;
9759;SDS011;4919;48.792;9.202;2023-01-28T11:15:16;3.20;;;1.90;;
9759;SDS011;4919;48.792;9.202;2023-01-28T11:18:01;6.73;;;3.83;;
9759;SDS011;4919;48.792;9.202;2023-01-28T11:24:14;19.63;;;7.20;;
9759;SDS011;4919;48.792;9.202;2023-01-28T11:27:08;68.53;;;21.30;;
9759;SDS011;4919;48.792;9.202;2023-01-28T11:29:59;88.47;;;28.03;;
9759;SDS011;4919;48.792;9.202;2023-01-28T11:32:52;60.60;;;20.63;;
9759;SDS011;4919;48.792;9.202;2023-01-28T11:35:41;104.60;;;32.93;;
9759;SDS011;4919;48.792;9.202;2023-01-28T11:38:35;40.70;;;18.40;;
9759;SDS011;4919;48.792;9.202;2023-01-28T11:41:31;51.00;;;19.20;;
9759;SDS011;4919;48.792;9.202;2023-01-28T11:44:19;65.67;;;21.27;;
9759;SDS011;4919;48.792;9.202;2023-01-28T11:47:43;99.23;;;31.03;;
9759;SDS011;4919;48.792;9.202;2023-01-28T11:50:30;106.17;;;35.80;;
9759;SDS011;4919;48.792;9.202;2023-01-28T12:00:02;49.00;;;16.30;;
9759;SDS011;4919;48.792;9.202;2023-01-28T12:12:28;15.00;;;6.00;;
9759;SDS011;4919;48.792;9.202;2023-01-28T12:21:26;3.70;;;2.10;;
9759;SDS011;4919;48.792;9.202;2023-01-28T12:24:46;2.20;;;1.40;;
9759;SDS011;4919;48.792;9.202;2023-01-28T12:27:46;2.80;;;1.60;;
9759;SDS011;4919;48.792;9.202;2023-01-28T12:30:53;4.20;;;1.60;;
9759;SDS011;4919;48.792;9.202;2023-01-28T12:34:12;2.37;;;1.40;;
9759;SDS011;4919;48.792;9.202;2023-01-28T12:40:56;1.77;;;1.47;;
9759;SDS011;4919;48.792;9.202;2023-01-28T12:44:02;1.70;;;1.50;;
9759;SDS011;4919;48.792;9.202;2023-01-28T12:46:59;1.97;;;1.30;;
9759;SDS011;4919;48.792;9.202;2023-01-28T12:49:52;3.00;;;1.23;;
9759;SDS011;4919;48.792;9.202;2023-01-28T12:52:40;1.73;;;1.20;;
9759;SDS011;4919;48.792;9.202;2023-01-28T13:01:53;2.97;;;1.60;;
9759;SDS011;4919;48.792;9.202;2023-01-28T13:05:14;4.17;;;1.80;;
9759;SDS011;4919;48.792;9.202;2023-01-28T13:08:10;2.57;;;1.50;;
9759;SDS011;4919;48.792;9.202;2023-01-28T13:11:13;2.37;;;1.63;;
9759;SDS011;4919;48.792;9.202;2023-01-28T13:14:01;13.97;;;8.83;;
9759;SDS011;4919;48.792;9.202;2023-01-28T13:16:46;4.23;;;2.93;;
9759;SDS011;4919;48.792;9.202;2023-01-28T13:19:35;3.23;;;1.60;;
9759;SDS011;4919;48.792;9.202;2023-01-28T13:25:20;3.03;;;2.00;;
9759;SDS011;4919;48.792;9.202;2023-01-28T13:28:23;16.00;;;10.13;;
9759;SDS011;4919;48.792;9.202;2023-01-28T13:31:16;3.13;;;2.40;;
9759;SDS011;4919;48.792;9.202;2023-01-28T13:34:03;2.80;;;1.60;;
9759;SDS011;4919;48.792;9.202;2023-01-28T13:36:49;2.37;;;1.40;;
9759;SDS011;4919;48.792;9.202;2023-01-28T13:39:35;2.53;;;1.60;;
9759;SDS011;4919;48.792;9.202;2023-01-28T13:42:22;2.90;;;1.60;;
9759;SDS011;4919;48.792;9.202;2023-01-28T13:50:56;2.57;;;1.50;;
9759;SDS011;4919;48.792;9.202;2023-01-28T13:53:58;2.50;;;1.60;;
9759;SDS011;4919;48.792;9.202;2023-01-28T13:57:04;3.23;;;1.63;;
9759;SDS011;4919;48.792;9.202;2023-01-28T14:12:15;3.37;;;1.63;;
9759;SDS011;4919;48.792;9.202;2023-01-28T14:18:14;2.17;;;1.60;;
9759;SDS011;4919;48.792;9.202;2023-01-28T14:21:10;2.77;;;1.37;;
9759;SDS011;4919;48.792;9.202;2023-01-28T14:23:57;2.27;;;1.50;;
9759;SDS011;4919;48.792;9.202;2023-01-28T14:26:57;1.83;;;1.40;;
9759;SDS011;4919;48.792;9.202;2023-01-28T14:33:01;2.73;;;1.33;;
9759;SDS011;4919;48.792;9.202;2023-01-28T14:35:46;3.07;;;1.30;;
9759;SDS011;4919;48.792;9.202;2023-01-28T14:38:35;1.20;;;1.10;;
9759;SDS011;4919;48.792;9.202;2023-01-28T14:41:24;1.97;;;1.47;;
9759;SDS011;4919;48.792;9.202;2023-01-28T14:44:13;2.67;;;1.27;;
9759;SDS011;4919;48.792;9.202;2023-01-28T14:47:29;2.67;;;1.33;;
9759;SDS011;4919;48.792;9.202;2023-01-28T14:59:31;2.23;;;1.20;;
9759;SDS011;4919;48.792;9.202;2023-01-28T15:02:41;3.27;;;1.70;;
9759;SDS011;4919;48.792;9.202;2023-01-28T15:05:27;2.50;;;1.43;;
9759;SDS011;4919;48.792;9.202;2023-01-28T15:08:19;2.73;;;1.30;;
9759;SDS011;4919;48.792;9.202;2023-01-28T15:11:08;2.33;;;1.40;;
9759;SDS011;4919;48.792;9.202;2023-01-28T15:13:56;1.50;;;1.33;;
9759;SDS011;4919;48.792;9.202;2023-01-28T15:16:45;2.20;;;1.40;;
9759;SDS011;4919;48.792;9.202;2023-01-28T15:19:33;1.80;;;1.50;;
9759;SDS011;4919;48.792;9.202;2023-01-28T15:22:20;2.30;;;1.40;;
9759;SDS011;4919;48.792;9.202;2023-01-28T15:25:16;4.67;;;1.63;;
9759;SDS011;4919;48.792;9.202;2023-01-28T15:28:02;3.83;;;1.53;;
9759;SDS011;4919;48.792;9.202;2023-01-28T15:30:47;2.60;;;1.50;;
9759;SDS011;4919;48.792;9.202;2023-01-28T15:33:32;2.93;;;1.50;;
9759;SDS011;4919;48.792;9.202;2023-01-28T15:36:17;2.50;;;1.30;;
9759;SDS011;4919;48.792;9.202;2023-01-28T15:39:02;1.60;;;1.40;;
9759;SDS011;4919;48.792;9.202;2023-01-28T15:41:48;3.30;;;1.50;;
9759;SDS011;4919;48.792;9.202;2023-01-28T15:44:44;2.33;;;1.50;;
9759;SDS011;4919;48.792;9.202;2023-01-28T15:47:32;1.30;;;1.20;;
9759;SDS011;4919;48.792;9.202;2023-01-28T15:50:22;2.30;;;1.30;;
9759;SDS011;4919;48.792;9.202;2023-01-28T15:53:12;1.57;;;1.27;;
9759;SDS011;4919;48.792;9.202;2023-01-28T15:56:04;1.67;;;1.40;;
9759;SDS011;4919;48.792;9.202;2023-01-28T15:58:54;1.17;;;1.07;;
9759;SDS011;4919;48.792;9.202;2023-01-28T16:01:39;1.67;;;1.23;;
9759;SDS011;4919;48.792;9.202;2023-01-28T16:04:26;2.43;;;1.30;;
9759;SDS011;4919;48.792;9.202;2023-01-28T16:07:12;3.00;;;1.20;;
9759;SDS011;4919;48.792;9.202;2023-01-28T16:09:58;1.57;;;1.20;;
9759;SDS011;4919;48.792;9.202;2023-01-28T16:12:48;1.87;;;1.40;;
9759;SDS011;4919;48.792;9.202;2023-01-28T16:15:35;3.20;;;1.30;;
9759;SDS011;4919;48.792;9.202;2023-01-28T16:18:27;3.10;;;1.67;;
9759;SDS011;4919;48.792;9.202;2023-01-28T16:21:28;1.90;;;1.50;;
9759;SDS011;4919;48.792;9.202;2023-01-28T16:24:21;1.83;;;1.60;;
9759;SDS011;4919;48.792;9.202;2023-01-28T16:27:25;4.17;;;1.80;;
9759;SDS011;4919;48.792;9.202;2023-01-28T16:30:12;2.13;;;1.60;;
9759;SDS011;4919;48.792;9.202;2023-01-28T16:32:57;2.17;;;1.97;;
9759;SDS011;4919;48.792;9.202;2023-01-28T16:35:42;1.70;;;1.60;;
9759;SDS011;4919;48.792;9.202;2023-01-28T16:38:27;4.27;;;1.70;;
9759;SDS011;4919;48.792;9.202;2023-01-28T16:41:14;3.17;;;2.10;;
9759;SDS011;4919;48.792;9.202;2023-01-28T16:44:11;4.60;;;2.10;;
9759;SDS011;4919;48.792;9.202;2023-01-28T16:46:57;2.20;;;1.83;;
9759;SDS011;4919;48.792;9.202;2023-01-28T16:49:41;3.77;;;2.10;;
9759;SDS011;4919;48.792;9.202;2023-01-28T16:52:26;2.93;;;2.20;;
9759;SDS011;4919;48.792;9.202;2023-01-28T16:55:15;4.90;;;2.40;;
9759;SDS011;4919;48.792;9.202;2023-01-28T16:58:02;9.57;;;5.30;;
9759;SDS011;4919;48.792;9.202;2023-01-28T17:00:48;5.03;;;2.90;;
9759;SDS011;4919;48.792;9.202;2023-01-28T17:03:33;3.60;;;2.23;;
9759;SDS011;4919;48.792;9.202;2023-01-28T17:06:18;2.57;;;2.23;;
9759;SDS011;4919;48.792;9.202;2023-01-28T17:09:04;2.67;;;2.00;;
9759;SDS011;4919;48.792;9.202;2023-01-28T17:11:49;4.23;;;1.70;;
9759;SDS011;4919;48.792;9.202;2023-01-28T17:14:34;1.93;;;1.63;;
9759;SDS011;4919;48.792;9.202;2023-01-28T17:17:19;3.20;;;1.80;;
9759;SDS011;4919;48.792;9.202;2023-01-28T17:20:04;3.57;;;1.80;;
9759;SDS011;4919;48.792;9.202;2023-01-28T17:22:49;4.83;;;2.07;;
9759;SDS011;4919;48.792;9.202;2023-01-28T17:25:37;1.60;;;1.50;;
9759;SDS011;4919;48.792;9.202;2023-01-28T17:28:22;2.20;;;1.80;;
9759;SDS011;4919;48.792;9.202;2023-01-28T17:31:08;3.13;;;1.70;;
9759;SDS011;4919;48.792;9.202;2023-01-28T17:33:55;2.07;;;1.87;;
9759;SDS011;4919;48.792;9.202;2023-01-28T17:36:41;3.10;;;2.00;;
9759;SDS011;4919;48.792;9.202;2023-01-28T17:39:26;5.83;;;2.10;;
9759;SDS011;4919;48.792;9.202;2023-01-28T17:42:11;2.97;;;1.90;;
9759;SDS011;4919;48.792;9.202;2023-01-28T17:44:56;3.97;;;1.90;;
9759;SDS011;4919;48.792;9.202;2023-01-28T17:47:41;3.93;;;2.30;;
9759;SDS011;4919;48.792;9.202;2023-01-28T17:50:26;3.77;;;2.53;;
9759;SDS011;4919;48.792;9.202;2023-01-28T17:53:11;3.77;;;2.57;;
9759;SDS011;4919;48.792;9.202;2023-01-28T17:55:55;3.40;;;2.60;;
9759;SDS011;4919;48.792;9.202;2023-01-28T17:58:40;5.33;;;3.00;;
9759;SDS011;4919;48.792;9.202;2023-01-28T18:01:25;4.77;;;2.57;;
9759;SDS011;4919;48.792;9.202;2023-01-28T18:04:10;2.63;;;2.27;;
9759;SDS011;4919;48.792;9.202;2023-01-28T18:06:55;3.23;;;2.27;;
9759;SDS011;4919;48.792;9.202;2023-01-28T18:09:40;5.07;;;2.40;;
9759;SDS011;4919;48.792;9.202;2023-01-28T18:12:26;2.43;;;2.00;;
9759;SDS011;4919;48.792;9.202;2023-01-28T18:15:11;2.83;;;2.03;;
9759;SDS011;4919;48.792;9.202;2023-01-28T18:17:56;2.77;;;1.90;;
9759;SDS011;4919;48.792;9.202;2023-01-28T18:20:41;2.70;;;2.10;;
9759;SDS011;4919;48.792;9.202;2023-01-28T18:23:26;4.73;;;1.83;;
9759;SDS011;4919;48.792;9.202;2023-01-28T18:26:11;2.83;;;1.90;;
9759;SDS011;4919;48.792;9.202;2023-01-28T18:28:56;3.33;;;1.80;;
9759;SDS011;4919;48.792;9.202;2023-01-28T18:31:41;3.10;;;2.20;;
9759;SDS011;4919;48.792;9.202;2023-01-28T18:34:26;4.17;;;2.40;;
9759;SDS011;4919;48.792;9.202;2023-01-28T18:37:12;3.07;;;2.20;;
9759;SDS011;4919;48.792;9.202;2023-01-28T18:39:57;3.47;;;2.20;;
9759;SDS011;4919;48.792;9.202;2023-01-28T18:42:41;4.87;;;2.30;;
9759;SDS011;4919;48.792;9.202;2023-01-28T18:45:26;4.33;;;2.30;;
9759;SDS011;4919;48.792;9.202;2023-01-28T18:48:11;3.20;;;2.00;;
9759;SDS011;4919;48.792;9.202;2023-01-28T18:50:56;3.00;;;2.00;;
9759;SDS011;4919;48.792;9.202;2023-01-28T18:53:41;2.77;;;1.97;;
9759;SDS011;4919;48.792;9.202;2023-01-28T18:56:26;2.93;;;2.20;;
9759;SDS011;4919;48.792;9.202;2023-01-28T18:59:12;2.70;;;2.00;;
9759;SDS011;4919;48.792;9.202;2023-01-28T19:01:58;4.83;;;2.20;;
9759;SDS011;4919;48.792;9.202;2023-01-28T19:04:42;3.50;;;2.37;;
9759;SDS011;4919;48.792;9.202;2023-01-28T19:07:28;3.90;;;2.03;;
9759;SDS011;4919;48.792;9.202;2023-01-28T19:10:15;5.67;;;2.17;;
9759;SDS011;4919;48.792;9.202;2023-01-28T19:12:59;4.63;;;2.27;;
9759;SDS011;4919;48.792;9.202;2023-01-28T19:15:44;5.47;;;3.40;;
9759;SDS011;4919;48.792;9.202;2023-01-28T19:18:29;11.33;;;6.57;;